createdAt,value
2022-12-11T00:01:37.803Z,42.45
2022-12-11T00:04:04.212Z,42.45
2022-12-11T00:06:30.564Z,42.46
2022-12-11T00:08:56.972Z,42.44
2022-12-11T00:11:23.358Z,42.45
2022-12-11T00:13:49.765Z,42.41
2022-12-11T00:16:16.173Z,42.46
2022-12-11T00:18:42.516Z,42.52
2022-12-11T00:21:08.861Z,42.50
2022-12-11T00:23:35.256Z,42.50
2022-12-11T00:26:01.610Z,42.49
2022-12-11T00:28:27.993Z,42.50
2022-12-11T00:30:54.344Z,42.49
2022-12-11T00:33:20.730Z,42.48
2022-12-11T00:35:47.092Z,42.47
2022-12-11T00:38:13.475Z,42.49
2022-12-11T00:40:39.810Z,42.49
2022-12-11T00:43:06.198Z,42.48
2022-12-11T00:45:32.554Z,42.47
2022-12-11T00:47:58.933Z,42.50
2022-12-11T00:50:25.386Z,42.53
2022-12-11T00:52:51.816Z,42.51
2022-12-11T00:55:18.131Z,42.49
2022-12-11T00:57:44.497Z,42.51
2022-12-11T01:00:11.030Z,42.48
2022-12-11T01:02:37.512Z,42.47
2022-12-11T01:05:03.831Z,42.51
2022-12-11T01:07:30.177Z,42.47
2022-12-11T01:09:56.562Z,42.47
2022-12-11T01:12:22.901Z,42.54
2022-12-11T01:14:49.342Z,42.51
2022-12-11T01:17:15.681Z,42.52
2022-12-11T01:19:42.094Z,42.53
2022-12-11T01:22:08.435Z,42.52
2022-12-11T01:24:34.849Z,42.51
2022-12-11T01:27:01.197Z,42.51
2022-12-11T01:29:27.598Z,42.49
2022-12-11T01:31:53.931Z,42.52
2022-12-11T01:34:20.313Z,42.48
2022-12-11T01:36:46.780Z,42.52
2022-12-11T01:39:13.180Z,42.51
2022-12-11T01:41:39.528Z,42.55
2022-12-11T01:44:05.910Z,42.52
2022-12-11T01:46:32.278Z,42.58
2022-12-11T01:48:58.643Z,42.54
2022-12-11T01:51:24.980Z,42.55
2022-12-11T01:53:51.369Z,42.57
2022-12-11T01:56:17.716Z,42.54
2022-12-11T01:58:44.098Z,42.52
2022-12-11T02:01:10.506Z,42.52
2022-12-11T02:03:36.862Z,42.54
2022-12-11T02:06:03.227Z,42.48
2022-12-11T02:08:29.665Z,42.54
2022-12-11T02:10:55.962Z,42.53
2022-12-11T02:13:22.341Z,42.48
2022-12-11T02:15:48.685Z,42.52
2022-12-11T02:18:15.090Z,42.53
2022-12-11T02:20:41.483Z,42.53
2022-12-11T02:23:07.872Z,42.55
2022-12-11T02:25:34.214Z,42.56
2022-12-11T02:28:00.604Z,42.53
2022-12-11T02:30:26.954Z,42.54
2022-12-11T02:32:53.342Z,42.48
2022-12-11T02:35:19.678Z,42.55
2022-12-11T02:37:46.067Z,42.55
2022-12-11T02:40:12.403Z,42.57
2022-12-11T02:42:38.787Z,42.56
2022-12-11T02:45:05.165Z,42.59
2022-12-11T02:47:31.537Z,42.60
2022-12-11T02:49:57.874Z,42.61
2022-12-11T02:52:24.292Z,42.56
2022-12-11T02:54:50.615Z,42.61
2022-12-11T02:57:16.999Z,42.58
2022-12-11T02:59:43.373Z,42.61
2022-12-11T03:02:09.759Z,42.60
2022-12-11T03:04:36.133Z,42.61
2022-12-11T03:07:02.511Z,42.61
2022-12-11T03:09:28.856Z,42.60
2022-12-11T03:11:55.246Z,42.62
2022-12-11T03:14:21.586Z,42.63
2022-12-11T03:16:47.973Z,42.64
2022-12-11T03:19:14.351Z,42.61
2022-12-11T03:21:40.738Z,42.62
2022-12-11T03:24:07.080Z,42.66
2022-12-11T03:26:33.495Z,42.66
2022-12-11T03:28:59.845Z,42.64
2022-12-11T03:31:26.258Z,42.64
2022-12-11T03:33:52.607Z,42.66
2022-12-11T03:36:19.008Z,42.67
2022-12-11T03:38:45.370Z,42.66
2022-12-11T03:41:11.760Z,42.62
2022-12-11T03:43:38.119Z,42.68
2022-12-11T03:46:04.565Z,42.66
2022-12-11T03:48:30.860Z,42.65
2022-12-11T03:50:57.234Z,42.62
2022-12-11T03:53:25.686Z,42.63
2022-12-11T03:55:49.969Z,42.62
2022-12-11T03:58:16.310Z,42.62
2022-12-11T04:00:42.691Z,42.68
2022-12-11T04:03:13.281Z,42.67
2022-12-11T04:05:35.421Z,42.68
2022-12-11T04:08:01.818Z,42.69
2022-12-11T04:10:28.155Z,42.72
2022-12-11T04:12:54.499Z,42.66
2022-12-11T04:15:20.880Z,42.64
2022-12-11T04:17:47.221Z,42.65
2022-12-11T04:20:13.608Z,42.65
2022-12-11T04:22:39.977Z,42.68
2022-12-11T04:25:06.360Z,42.66
2022-12-11T04:27:32.727Z,42.71
2022-12-11T04:29:59.111Z,42.66
2022-12-11T04:32:25.454Z,42.68
2022-12-11T04:34:51.838Z,42.66
2022-12-11T04:37:18.178Z,42.68
2022-12-11T04:39:44.568Z,42.66
2022-12-11T04:42:10.911Z,42.70
2022-12-11T04:44:37.294Z,42.71
2022-12-11T04:47:03.651Z,42.71
2022-12-11T04:49:30.034Z,42.73
2022-12-11T04:51:56.375Z,42.75
2022-12-11T04:54:22.795Z,42.71
2022-12-11T04:56:49.126Z,42.72
2022-12-11T04:59:15.509Z,42.71
2022-12-11T05:01:41.882Z,42.73
2022-12-11T05:04:08.301Z,42.72
2022-12-11T05:06:34.650Z,42.72
2022-12-11T05:09:01.031Z,42.73
2022-12-11T05:11:27.376Z,42.72
2022-12-11T05:13:53.775Z,42.72
2022-12-11T05:16:20.162Z,42.73
2022-12-11T05:18:46.511Z,42.72
2022-12-11T05:21:12.852Z,42.72
2022-12-11T05:23:39.249Z,42.71
2022-12-11T05:26:05.588Z,42.71
2022-12-11T05:28:31.969Z,42.71
2022-12-11T05:30:58.348Z,42.72
2022-12-11T05:33:24.691Z,42.73
2022-12-11T05:35:51.035Z,42.72
2022-12-11T05:38:17.421Z,42.66
2022-12-11T05:40:43.761Z,42.66
2022-12-11T05:43:10.145Z,42.71
2022-12-11T05:45:36.488Z,42.69
2022-12-11T05:48:02.908Z,42.67
2022-12-11T05:50:29.218Z,42.71
2022-12-11T05:52:55.755Z,42.71
2022-12-11T05:55:22.098Z,42.71
2022-12-11T05:57:48.490Z,42.66
2022-12-11T06:00:14.829Z,42.72
2022-12-11T06:02:41.321Z,42.73
2022-12-11T06:05:07.670Z,42.71
2022-12-11T06:07:33.990Z,42.66
2022-12-11T06:10:00.327Z,42.65
2022-12-11T06:12:26.736Z,42.66
2022-12-11T06:14:53.101Z,42.63
2022-12-11T06:17:19.476Z,42.57
2022-12-11T06:19:45.845Z,42.57
2022-12-11T06:22:12.196Z,42.56
2022-12-11T06:24:38.532Z,42.60
2022-12-11T06:27:04.940Z,42.57
2022-12-11T06:29:31.307Z,42.52
2022-12-11T06:31:57.741Z,42.54
2022-12-11T06:34:24.045Z,42.49
2022-12-11T06:36:50.451Z,42.53
2022-12-11T06:39:16.827Z,42.50
2022-12-11T06:41:43.231Z,42.51
2022-12-11T06:44:09.578Z,42.54
2022-12-11T06:46:35.962Z,42.58
2022-12-11T06:49:02.304Z,42.54
2022-12-11T06:51:28.701Z,42.54
2022-12-11T06:53:55.037Z,42.52
2022-12-11T06:56:21.418Z,42.54
2022-12-11T06:58:47.787Z,42.56
2022-12-11T07:01:14.245Z,42.60
2022-12-11T07:03:40.530Z,42.58
2022-12-11T07:06:06.921Z,42.55
2022-12-11T07:08:33.259Z,42.59
2022-12-11T07:10:59.656Z,42.58
2022-12-11T07:13:26.001Z,42.61
2022-12-11T07:15:52.387Z,42.55
2022-12-11T07:18:18.767Z,42.55
2022-12-11T07:20:45.166Z,42.54
2022-12-11T07:23:11.517Z,42.51
2022-12-11T07:25:37.960Z,42.53
2022-12-11T07:28:04.304Z,42.56
2022-12-11T07:30:30.691Z,42.53
2022-12-11T07:32:57.110Z,42.48
2022-12-11T07:35:23.432Z,42.47
2022-12-11T07:37:49.775Z,42.44
2022-12-11T07:40:16.208Z,42.42
2022-12-11T07:42:46.112Z,42.36
2022-12-11T07:45:09.289Z,42.37
2022-12-11T07:47:35.325Z,42.44
2022-12-11T07:50:01.723Z,42.51
2022-12-11T07:52:28.205Z,42.48
2022-12-11T07:54:54.594Z,42.48
2022-12-11T07:57:20.957Z,42.49
2022-12-11T07:59:47.358Z,42.51
2022-12-11T08:02:13.731Z,42.51
2022-12-11T08:04:40.083Z,42.47
2022-12-11T08:07:06.453Z,42.48
2022-12-11T08:09:32.841Z,42.48
2022-12-11T08:11:59.227Z,42.49
2022-12-11T08:14:25.611Z,42.50
2022-12-11T08:16:51.986Z,42.46
2022-12-11T08:19:18.359Z,42.47
2022-12-11T08:21:44.702Z,42.47
2022-12-11T08:24:11.086Z,42.49
2022-12-11T08:26:37.431Z,42.46
2022-12-11T08:29:03.828Z,42.38
2022-12-11T08:31:30.166Z,42.42
2022-12-11T08:33:56.563Z,42.38
2022-12-11T08:36:22.941Z,42.35
2022-12-11T08:38:49.321Z,42.35
2022-12-11T08:41:15.664Z,42.37
2022-12-11T08:43:42.078Z,42.36
2022-12-11T08:46:08.483Z,42.38
2022-12-11T08:48:34.816Z,42.35
2022-12-11T08:51:01.157Z,42.34
2022-12-11T08:53:27.563Z,42.38
2022-12-11T08:55:53.913Z,42.39
2022-12-11T08:58:20.291Z,42.36
2022-12-11T09:00:46.633Z,42.37
2022-12-11T09:03:13.190Z,42.35
2022-12-11T09:05:39.379Z,42.36
2022-12-11T09:08:05.837Z,42.36
2022-12-11T09:10:32.159Z,42.34
2022-12-11T09:12:58.544Z,42.33
2022-12-11T09:15:24.891Z,42.30
2022-12-11T09:17:51.273Z,42.29
2022-12-11T09:20:17.622Z,42.21
2022-12-11T09:22:44.008Z,42.24
2022-12-11T09:25:10.675Z,42.19
2022-12-11T09:27:36.746Z,42.14
2022-12-11T09:30:03.121Z,42.12
2022-12-11T09:32:29.509Z,42.13
2022-12-11T09:34:55.895Z,42.10
2022-12-11T09:37:22.288Z,42.02
2022-12-11T09:39:48.628Z,42.18
2022-12-11T09:42:15.017Z,42.12
2022-12-11T09:44:41.364Z,42.12
2022-12-11T09:47:07.753Z,42.09
2022-12-11T09:49:34.093Z,42.09
2022-12-11T09:52:00.495Z,42.04
2022-12-11T09:54:26.821Z,42.04
2022-12-11T09:56:53.272Z,42.03
2022-12-11T09:59:19.619Z,42.02
2022-12-11T10:01:46.070Z,42.04
2022-12-11T10:04:12.348Z,42.04
2022-12-11T10:06:38.782Z,42.03
2022-12-11T10:09:05.119Z,42.00
2022-12-11T10:11:31.508Z,41.96
2022-12-11T10:13:57.847Z,41.92
2022-12-11T10:16:24.242Z,41.89
2022-12-11T10:18:50.578Z,41.78
2022-12-11T10:21:16.990Z,41.79
2022-12-11T10:23:43.357Z,41.77
2022-12-11T10:26:09.738Z,41.77
2022-12-11T10:28:36.082Z,41.78
2022-12-11T10:31:02.557Z,41.80
2022-12-11T10:33:28.839Z,41.89
2022-12-11T10:35:55.222Z,41.81
2022-12-11T10:38:21.587Z,42.02
2022-12-11T10:40:47.973Z,41.99
2022-12-11T10:43:14.342Z,42.05
2022-12-11T10:45:40.737Z,41.99
2022-12-11T10:48:07.081Z,42.03
2022-12-11T10:50:33.480Z,42.07
2022-12-11T10:52:59.832Z,41.99
2022-12-11T10:55:26.213Z,41.82
2022-12-11T10:57:52.558Z,41.88
2022-12-11T11:00:18.980Z,41.84
2022-12-11T11:02:45.343Z,41.88
2022-12-11T11:05:12.037Z,41.81
2022-12-11T11:07:38.079Z,41.91
2022-12-11T11:10:04.467Z,41.81
2022-12-11T11:12:30.816Z,41.88
2022-12-11T11:14:57.209Z,41.86
2022-12-11T11:17:23.550Z,41.92
2022-12-11T11:19:49.939Z,41.83
2022-12-11T11:22:16.328Z,41.87
2022-12-11T11:24:42.676Z,41.87
2022-12-11T11:27:13.503Z,41.91
2022-12-11T11:29:35.416Z,41.86
2022-12-11T11:32:01.804Z,41.95
2022-12-11T11:34:28.153Z,42.02
2022-12-11T11:36:54.536Z,42.09
2022-12-11T11:39:20.871Z,42.02
2022-12-11T11:41:47.275Z,42.09
2022-12-11T11:44:13.603Z,42.05
2022-12-11T11:46:40.045Z,41.99
2022-12-11T11:49:06.329Z,42.02
2022-12-11T11:51:32.724Z,42.03
2022-12-11T11:53:59.061Z,41.98
2022-12-11T11:56:25.456Z,41.89
2022-12-11T11:58:51.841Z,41.89
2022-12-11T12:01:18.236Z,41.99
2022-12-11T12:03:44.620Z,41.99
2022-12-11T12:06:15.093Z,42.00
2022-12-11T12:08:37.370Z,42.01
2022-12-11T12:11:03.770Z,42.01
2022-12-11T12:13:49.279Z,42.00
2022-12-11T12:15:56.581Z,41.98
2022-12-11T12:18:22.887Z,41.94
2022-12-11T12:20:49.284Z,41.94
2022-12-11T12:23:15.628Z,41.90
2022-12-11T12:25:42.033Z,42.00
2022-12-11T12:28:08.381Z,41.91
2022-12-11T12:30:34.777Z,42.02
2022-12-11T12:33:01.496Z,42.07
2022-12-11T12:35:27.932Z,42.04
2022-12-11T12:37:54.265Z,41.96
2022-12-11T12:40:20.658Z,41.97
2022-12-11T12:42:47.031Z,41.96
2022-12-11T12:45:13.823Z,42.00
2022-12-11T12:47:39.764Z,42.03
2022-12-11T12:50:06.150Z,42.02
2022-12-11T12:52:32.493Z,42.00
2022-12-11T12:54:58.876Z,42.01
2022-12-11T12:57:25.216Z,41.92
2022-12-11T12:59:51.604Z,41.84
2022-12-11T13:02:18.036Z,41.80
2022-12-11T13:04:59.662Z,41.70
2022-12-11T13:07:10.671Z,41.58
2022-12-11T13:09:37.051Z,41.54
2022-12-11T13:12:03.400Z,41.45
2022-12-11T13:14:29.786Z,41.43
2022-12-11T13:16:56.129Z,41.35
2022-12-11T13:19:22.533Z,41.32
2022-12-11T13:21:48.880Z,41.28
2022-12-11T13:24:15.277Z,41.15
2022-12-11T13:26:41.616Z,41.13
2022-12-11T13:29:08.050Z,41.03
2022-12-11T13:31:34.425Z,40.87
2022-12-11T13:34:00.789Z,40.84
2022-12-11T13:36:27.128Z,40.72
2022-12-11T13:38:53.540Z,40.70
2022-12-11T13:41:19.881Z,40.61
2022-12-11T13:43:46.268Z,40.53
2022-12-11T13:46:12.678Z,40.51
2022-12-11T13:48:39.003Z,40.38
2022-12-11T13:51:05.355Z,40.26
2022-12-11T13:53:31.774Z,40.29
2022-12-11T13:55:58.117Z,40.22
2022-12-11T13:58:24.534Z,40.09
2022-12-11T14:00:50.975Z,40.07
2022-12-11T14:03:17.296Z,39.98
2022-12-11T14:05:43.650Z,39.85
2022-12-11T14:08:10.098Z,39.81
2022-12-11T14:10:36.376Z,39.90
2022-12-11T14:13:02.765Z,39.80
2022-12-11T14:15:29.107Z,39.83
2022-12-11T14:17:55.514Z,39.67
2022-12-11T14:20:21.855Z,39.62
2022-12-11T14:22:48.251Z,39.52
2022-12-11T14:25:14.850Z,39.49
2022-12-11T14:27:40.983Z,39.53
2022-12-11T14:30:07.327Z,39.49
2022-12-11T14:32:33.717Z,39.39
2022-12-11T14:35:00.065Z,39.34
2022-12-11T14:37:26.443Z,39.31
2022-12-11T14:39:52.799Z,39.30
2022-12-11T14:42:19.209Z,39.28
2022-12-11T14:44:45.557Z,39.24
2022-12-11T14:47:11.939Z,39.14
2022-12-11T14:49:38.278Z,39.09
2022-12-11T14:52:04.672Z,39.03
2022-12-11T14:54:31.027Z,38.99
2022-12-11T14:56:57.396Z,38.88
2022-12-11T14:59:28.533Z,38.89
2022-12-11T15:01:51.964Z,38.83
2022-12-11T15:04:16.470Z,38.77
2022-12-11T15:06:42.861Z,38.80
2022-12-11T15:09:09.196Z,38.84
2022-12-11T15:11:35.583Z,38.92
2022-12-11T15:14:01.928Z,38.92
2022-12-11T15:16:28.396Z,38.93
2022-12-11T15:18:54.665Z,38.93
2022-12-11T15:21:21.049Z,38.98
2022-12-11T15:23:47.414Z,38.98
2022-12-11T15:26:13.795Z,38.97
2022-12-11T15:28:40.133Z,38.99
2022-12-11T15:31:06.543Z,38.98
2022-12-11T15:33:34.745Z,38.97
2022-12-11T15:35:59.245Z,38.99
2022-12-11T15:38:25.593Z,39.06
2022-12-11T15:40:51.978Z,39.07
2022-12-11T15:43:18.340Z,39.09
2022-12-11T15:45:44.838Z,39.07
2022-12-11T15:48:11.087Z,39.09
2022-12-11T15:50:37.473Z,39.09
2022-12-11T15:53:03.806Z,39.15
2022-12-11T15:55:30.215Z,39.15
2022-12-11T15:57:56.582Z,39.18
2022-12-11T16:00:23.005Z,39.16
2022-12-11T16:02:49.412Z,39.24
2022-12-11T16:05:15.754Z,39.25
2022-12-11T16:07:42.097Z,39.26
2022-12-11T16:10:08.481Z,39.26
2022-12-11T16:12:34.820Z,39.30
2022-12-11T16:15:01.239Z,39.30
2022-12-11T16:17:27.588Z,39.33
2022-12-11T16:19:54.047Z,39.35
2022-12-11T16:22:20.392Z,39.36
2022-12-11T16:24:46.778Z,39.38
2022-12-11T16:27:13.118Z,39.39
2022-12-11T16:29:39.504Z,39.44
2022-12-11T16:32:05.853Z,39.46
2022-12-11T16:34:33.682Z,39.43
2022-12-11T16:36:58.585Z,39.45
2022-12-11T16:39:24.975Z,39.48
2022-12-11T16:41:51.326Z,39.48
2022-12-11T16:44:17.705Z,39.53
2022-12-11T16:46:44.112Z,39.54
2022-12-11T16:49:10.436Z,39.57
2022-12-11T16:51:36.776Z,39.59
2022-12-11T16:54:03.184Z,39.56
2022-12-11T16:56:29.530Z,39.60
2022-12-11T16:58:55.921Z,39.60
2022-12-11T17:01:22.299Z,39.64
2022-12-11T17:03:48.663Z,39.65
2022-12-11T17:06:16.429Z,39.66
2022-12-11T17:08:41.395Z,39.67
2022-12-11T17:11:07.737Z,39.70
2022-12-11T17:13:36.179Z,39.70
2022-12-11T17:16:00.619Z,39.71
2022-12-11T17:18:26.980Z,39.75
2022-12-11T17:20:53.338Z,39.76
2022-12-11T17:23:19.733Z,39.75
2022-12-11T17:25:46.083Z,39.79
2022-12-11T17:28:12.474Z,39.81
2022-12-11T17:30:38.818Z,39.81
2022-12-11T17:33:05.245Z,39.83
2022-12-11T17:35:31.586Z,39.82
2022-12-11T17:37:57.971Z,39.83
2022-12-11T17:40:24.314Z,39.84
2022-12-11T17:42:50.704Z,39.83
2022-12-11T17:45:17.050Z,39.86
2022-12-11T17:47:43.436Z,39.88
2022-12-11T17:50:09.787Z,39.90
2022-12-11T17:52:39.637Z,39.89
2022-12-11T17:55:02.513Z,39.93
2022-12-11T17:57:28.908Z,39.93
2022-12-11T17:59:55.444Z,39.94
2022-12-11T18:02:21.651Z,39.96
2022-12-11T18:04:47.995Z,39.97
2022-12-11T18:07:14.389Z,39.95
2022-12-11T18:09:40.741Z,39.94
2022-12-11T18:12:07.125Z,39.94
2022-12-11T18:14:33.471Z,39.94
2022-12-11T18:16:59.866Z,39.90
2022-12-11T18:19:26.217Z,39.90
2022-12-11T18:21:52.666Z,39.88
2022-12-11T18:24:19.014Z,39.88
2022-12-11T18:26:45.406Z,39.90
2022-12-11T18:29:11.749Z,39.88
2022-12-11T18:31:42.405Z,39.88
2022-12-11T18:34:04.507Z,39.88
2022-12-11T18:36:30.861Z,39.92
2022-12-11T18:38:57.211Z,39.94
2022-12-11T18:41:23.595Z,39.93
2022-12-11T18:43:49.992Z,39.94
2022-12-11T18:46:16.467Z,39.94
2022-12-11T18:48:42.719Z,39.91
2022-12-11T18:51:09.112Z,39.94
2022-12-11T18:53:35.446Z,39.92
2022-12-11T18:56:01.829Z,39.92
2022-12-11T18:58:28.175Z,39.92
2022-12-11T19:00:54.622Z,39.92
2022-12-11T19:03:20.906Z,39.94
2022-12-11T19:05:47.302Z,39.92
2022-12-11T19:08:13.714Z,39.93
2022-12-11T19:10:40.034Z,39.94
2022-12-11T19:13:06.378Z,39.95
2022-12-11T19:15:32.801Z,39.94
2022-12-11T19:17:59.142Z,39.95
2022-12-11T19:20:48.057Z,39.96
2022-12-11T19:22:51.884Z,39.97
2022-12-11T19:25:18.269Z,39.95
2022-12-11T19:27:44.690Z,39.95
2022-12-11T19:30:13.839Z,39.98
2022-12-11T19:32:40.187Z,39.98
2022-12-11T19:35:06.570Z,40.01
2022-12-11T19:37:32.977Z,40.00
2022-12-11T19:39:59.367Z,40.04
2022-12-11T19:42:25.713Z,40.03
2022-12-11T19:44:52.091Z,40.02
2022-12-11T19:47:18.433Z,40.05
2022-12-11T19:49:44.830Z,40.04
2022-12-11T19:52:11.250Z,40.04
2022-12-11T19:54:37.628Z,40.05
2022-12-11T19:57:03.971Z,40.05
2022-12-11T19:59:30.355Z,40.05
2022-12-11T20:01:56.733Z,40.05
2022-12-11T20:04:23.082Z,40.05
2022-12-11T20:06:50.661Z,40.06
2022-12-11T20:09:15.940Z,40.06
2022-12-11T20:11:42.150Z,40.06
2022-12-11T20:14:08.537Z,40.07
2022-12-11T20:17:08.765Z,40.06
2022-12-11T20:19:01.263Z,40.05
2022-12-11T20:21:27.628Z,40.06
2022-12-11T20:23:54.003Z,40.07
2022-12-11T20:26:20.349Z,40.06
2022-12-11T20:28:46.748Z,40.06
2022-12-11T20:31:19.513Z,40.06
2022-12-11T20:33:39.465Z,40.07
2022-12-11T20:36:05.813Z,40.11
2022-12-11T20:38:34.581Z,40.07
2022-12-11T20:40:58.565Z,40.08
2022-12-11T20:43:24.950Z,40.08
2022-12-11T20:45:51.308Z,40.04
2022-12-11T20:48:17.673Z,39.96
2022-12-11T20:50:44.028Z,39.92
2022-12-11T20:53:10.414Z,39.93
2022-12-11T20:55:36.758Z,39.92
2022-12-11T20:58:03.141Z,39.92
2022-12-11T21:00:29.521Z,39.93
2022-12-11T21:02:55.906Z,39.94
2022-12-11T21:05:22.248Z,39.91
2022-12-11T21:07:48.658Z,39.89
2022-12-11T21:10:15.027Z,39.93
2022-12-11T21:12:41.391Z,39.88
2022-12-11T21:15:07.736Z,39.88
2022-12-11T21:17:34.154Z,39.90
2022-12-11T21:20:00.499Z,39.88
2022-12-11T21:22:26.921Z,39.90
2022-12-11T21:24:53.264Z,39.88
2022-12-11T21:27:19.662Z,39.90
2022-12-11T21:29:46.060Z,39.85
2022-12-11T21:32:12.447Z,39.92
2022-12-11T21:34:38.812Z,39.91
2022-12-11T21:37:05.191Z,39.92
2022-12-11T21:39:36.059Z,39.96
2022-12-11T21:41:57.930Z,39.95
2022-12-11T21:46:50.656Z,39.96
2022-12-11T21:49:17.002Z,39.95
2022-12-11T21:51:47.086Z,39.97
2022-12-11T21:54:09.766Z,39.99
2022-12-11T21:56:36.099Z,40.00
2022-12-11T21:59:02.527Z,39.99
2022-12-11T22:01:28.970Z,40.02
2022-12-11T22:03:55.280Z,39.99
2022-12-11T22:06:21.638Z,40.00
2022-12-11T22:08:48.009Z,40.03
2022-12-11T22:11:14.358Z,40.02
2022-12-11T22:13:40.735Z,40.03
2022-12-11T22:16:07.186Z,40.03
2022-12-11T22:18:33.468Z,40.02
2022-12-11T22:20:59.805Z,40.05
2022-12-11T22:23:26.192Z,40.04
2022-12-11T22:25:54.807Z,40.09
2022-12-11T22:28:21.185Z,40.06
2022-12-11T22:30:47.611Z,40.05
2022-12-11T22:33:13.923Z,40.05
2022-12-11T22:35:40.259Z,40.06
2022-12-11T22:38:06.641Z,40.08
2022-12-11T22:40:32.988Z,40.08
2022-12-11T22:42:59.375Z,40.10
2022-12-11T22:45:25.717Z,40.10
2022-12-11T22:47:52.102Z,40.09
2022-12-11T22:50:18.449Z,40.09
2022-12-11T22:52:44.834Z,40.11
2022-12-11T22:55:11.435Z,40.11
2022-12-11T22:57:37.597Z,40.10
2022-12-11T23:00:03.944Z,40.10
2022-12-11T23:02:30.402Z,40.14
2022-12-11T23:04:56.721Z,40.14
2022-12-11T23:07:23.166Z,40.13
2022-12-11T23:09:49.471Z,40.15
2022-12-11T23:12:15.859Z,40.16
2022-12-11T23:14:42.200Z,40.15
2022-12-11T23:17:08.654Z,40.08
2022-12-11T23:19:34.943Z,40.08
2022-12-11T23:22:01.330Z,40.08
2022-12-11T23:24:27.675Z,40.08
2022-12-11T23:26:54.079Z,40.08
2022-12-11T23:29:20.424Z,40.10
2022-12-11T23:31:46.813Z,40.08
2022-12-11T23:34:13.156Z,40.09
2022-12-11T23:36:39.568Z,40.07
2022-12-11T23:39:05.907Z,40.09
2022-12-11T23:41:32.294Z,40.07
2022-12-11T23:43:58.639Z,40.09
2022-12-11T23:46:25.082Z,40.08
2022-12-11T23:48:51.379Z,40.07
2022-12-11T23:51:17.802Z,40.09
2022-12-11T23:53:44.146Z,40.09
2022-12-11T23:56:10.520Z,40.10
2022-12-11T23:58:36.864Z,40.10
